Time;durP1;ratioP1;P1;durP2;ratioP2;P2;SDS_P1;SDS_P2;PMS_P1;PMS_P2;Temp;Humidity;BMP_temperature;BMP_pressure;BME280_temperature;BME280_humidity;BME280_pressure;Samples;Min_cycle;Max_cycle;Signal;HPM_P1;HPM_P2
2021/04/24 00:00:22;;;;;;;;;;;18.30;51.50;;;;;;5041985;28;19917;-66
2021/04/24 00:02:47;;;;;;;;;;;18.30;51.60;;;;;;5042761;28;19917;-67
2021/04/24 00:05:17;;;;;;;;;;;18.30;51.40;;;;;;5024622;28;19959;-67
2021/04/24 00:07:43;;;;;;;;;;;18.30;51.50;;;;;;5042158;28;19991;-66
2021/04/24 00:10:08;;;;;;;;;;;18.30;51.40;;;;;;5041826;28;19929;-66
2021/04/24 00:12:34;;;;;;;;;;;18.30;51.40;;;;;;5042597;28;20313;-65
2021/04/24 00:14:59;;;;;;;;;;;18.30;51.40;;;;;;5042013;28;19917;-66
2021/04/24 00:17:25;;;;;;;;;;;18.30;51.40;;;;;;5042789;28;20384;-66
2021/04/24 00:19:50;;;;;;;;;;;18.30;51.40;;;;;;5042410;28;19978;-67
2021/04/24 00:22:16;;;;;;;;;;;18.30;51.30;;;;;;5042430;28;19930;-66
2021/04/24 00:24:41;;;;;;;;;;;18.30;51.30;;;;;;5042794;28;19992;-66
2021/04/24 00:27:07;;;;;;;;;;;18.30;51.30;;;;;;5042118;28;20379;-66
2021/04/24 00:29:34;;;;;;;;;;;18.30;51.30;;;;;;5042499;28;19917;-67
2021/04/24 00:32:00;;;;;;;;;;;18.30;51.30;;;;;;5042416;28;20028;-67
2021/04/24 00:34:25;;;;;;;;;;;18.30;51.30;;;;;;5043192;28;20007;-66
2021/04/24 00:36:50;;;;;;;;;;;18.30;51.20;;;;;;5043921;28;19920;-67
2021/04/24 00:39:16;;;;;;;;;;;18.30;51.20;;;;;;5045723;28;19921;-67
2021/04/24 00:41:41;;;;;;;;;;;18.30;51.20;;;;;;5045775;28;19916;-66
2021/04/24 00:44:07;;;;;;;;;;;18.30;51.20;;;;;;5043809;28;19963;-67
2021/04/24 00:46:32;;;;;;;;;;;18.30;51.10;;;;;;5042819;28;19986;-67
2021/04/24 00:48:58;;;;;;;;;;;18.30;51.20;;;;;;5042900;28;19921;-66
2021/04/24 00:51:23;;;;;;;;;;;18.30;51.10;;;;;;5043344;28;20574;-66
2021/04/24 00:53:48;;;;;;;;;;;18.30;51.10;;;;;;5046145;28;19917;-67
2021/04/24 00:56:14;;;;;;;;;;;18.30;51.10;;;;;;5044741;28;20006;-67
2021/04/24 00:58:39;;;;;;;;;;;18.30;51.10;;;;;;5028218;28;19924;-66
2021/04/24 01:01:05;;;;;;;;;;;18.30;51.10;;;;;;5027924;28;20287;-67
2021/04/24 01:03:31;;;;;;;;;;;18.30;51.00;;;;;;5045791;28;19921;-66
2021/04/24 01:05:56;;;;;;;;;;;18.30;51.00;;;;;;5028366;28;19921;-66
2021/04/24 01:08:21;;;;;;;;;;;18.30;51.00;;;;;;5046167;28;19916;-65
2021/04/24 01:10:47;;;;;;;;;;;18.30;51.00;;;;;;5045079;28;20431;-66
2021/04/24 01:13:13;;;;;;;;;;;18.30;50.90;;;;;;5046843;28;19924;-66
2021/04/24 01:15:38;;;;;;;;;;;18.30;50.90;;;;;;5047169;28;19917;-65
2021/04/24 01:18:04;;;;;;;;;;;18.30;50.90;;;;;;5046597;28;20407;-66
2021/04/24 01:20:30;;;;;;;;;;;18.30;50.90;;;;;;5046567;28;19925;-66
2021/04/24 01:22:55;;;;;;;;;;;18.30;50.80;;;;;;5029307;28;19917;-66
2021/04/24 01:25:22;;;;;;;;;;;18.30;50.80;;;;;;5028792;28;19920;-66
2021/04/24 01:27:48;;;;;;;;;;;18.30;50.80;;;;;;5045816;28;20536;-66
2021/04/24 01:30:13;;;;;;;;;;;18.30;50.80;;;;;;5044491;28;19917;-66
2021/04/24 01:32:39;;;;;;;;;;;18.30;50.80;;;;;;5045316;28;19969;-66
2021/04/24 01:35:08;;;;;;;;;;;18.30;50.80;;;;;;5045256;28;19923;-65
2021/04/24 01:37:34;;;;;;;;;;;18.30;50.70;;;;;;5028185;28;19924;-66
2021/04/24 01:39:59;;;;;;;;;;;18.20;50.60;;;;;;5044576;28;19925;-66
2021/04/24 01:42:25;;;;;;;;;;;18.30;50.70;;;;;;5044876;28;19955;-66
2021/04/24 01:44:50;;;;;;;;;;;18.30;50.70;;;;;;5045303;28;20406;-66
2021/04/24 01:47:15;;;;;;;;;;;18.30;50.60;;;;;;5045313;28;19917;-65
2021/04/24 01:49:41;;;;;;;;;;;18.30;51.20;;;;;;5044971;28;19920;-65
2021/04/24 01:52:06;;;;;;;;;;;18.30;50.60;;;;;;5045359;28;19939;-66
2021/04/24 01:54:32;;;;;;;;;;;18.30;50.60;;;;;;5045597;28;20402;-65
2021/04/24 01:56:57;;;;;;;;;;;18.30;50.50;;;;;;5045147;28;19940;-66
2021/04/24 01:59:25;;;;;;;;;;;18.30;50.50;;;;;;5046727;28;19921;-66
2021/04/24 02:01:50;;;;;;;;;;;18.20;50.40;;;;;;5056042;28;19917;-66
2021/04/24 02:04:16;;;;;;;;;;;18.30;50.50;;;;;;5054970;28;20399;-66
2021/04/24 02:06:41;;;;;;;;;;;18.20;50.40;;;;;;5046413;28;19924;-67
2021/04/24 02:09:07;;;;;;;;;;;18.20;50.40;;;;;;5046655;28;19960;-66
2021/04/24 02:11:33;;;;;;;;;;;18.20;51.00;;;;;;5045643;28;20538;-66
2021/04/24 02:13:58;;;;;;;;;;;18.20;50.40;;;;;;5046803;28;19925;-66
2021/04/24 02:16:24;;;;;;;;;;;18.20;50.30;;;;;;5045564;28;19916;-66
2021/04/24 02:18:49;;;;;;;;;;;18.20;50.30;;;;;;5046232;28;20508;-65
2021/04/24 02:21:15;;;;;;;;;;;18.20;50.20;;;;;;5045965;28;19923;-66
2021/04/24 02:23:40;;;;;;;;;;;18.20;50.20;;;;;;5044509;28;19916;-67
2021/04/24 02:26:08;;;;;;;;;;;18.20;50.20;;;;;;5045095;28;19917;-65
2021/04/24 02:28:34;;;;;;;;;;;18.20;50.20;;;;;;5035972;28;19920;-65
2021/04/24 02:30:59;;;;;;;;;;;18.20;50.20;;;;;;5044240;28;20387;-65
2021/04/24 02:33:25;;;;;;;;;;;18.20;50.20;;;;;;5044456;28;19944;-66
2021/04/24 02:35:54;;;;;;;;;;;18.20;50.20;;;;;;5044602;28;19917;-66
2021/04/24 02:38:30;;;;;;;;;;;18.20;50.10;;;;;;5044065;28;19916;-66
2021/04/24 02:40:56;;;;;;;;;;;18.20;50.10;;;;;;5043617;28;20019;-66
2021/04/24 02:43:22;;;;;;;;;;;18.20;50.10;;;;;;5043952;28;20012;-65
2021/04/24 02:45:47;;;;;;;;;;;18.20;50.10;;;;;;5043077;28;20403;-66
2021/04/24 02:48:13;;;;;;;;;;;18.20;50.10;;;;;;5043941;28;20031;-65
2021/04/24 02:50:39;;;;;;;;;;;18.20;50.10;;;;;;5044325;28;20605;-66
2021/04/24 02:53:04;;;;;;;;;;;18.20;50.10;;;;;;5043176;28;19921;-65
2021/04/24 02:55:29;;;;;;;;;;;18.20;50.00;;;;;;5042863;28;19983;-66
2021/04/24 02:57:55;;;;;;;;;;;18.20;50.70;;;;;;5043218;28;20375;-66
2021/04/24 03:00:20;;;;;;;;;;;18.20;50.00;;;;;;5042937;28;19979;-66
2021/04/24 03:02:46;;;;;;;;;;;18.20;49.90;;;;;;5043627;28;20047;-66
2021/04/24 03:05:12;;;;;;;;;;;18.10;49.90;;;;;;5025114;28;19917;-66
2021/04/24 03:07:38;;;;;;;;;;;18.20;50.00;;;;;;5043605;28;20375;-66
2021/04/24 03:10:04;;;;;;;;;;;18.20;50.00;;;;;;5043934;28;19938;-66
2021/04/24 03:12:30;;;;;;;;;;;18.20;50.00;;;;;;5044371;28;19925;-66
2021/04/24 03:14:55;;;;;;;;;;;18.20;49.90;;;;;;5044506;28;19972;-66
2021/04/24 03:17:21;;;;;;;;;;;18.20;50.00;;;;;;5026484;28;19925;-66
2021/04/24 03:19:46;;;;;;;;;;;18.10;49.90;;;;;;5047067;28;19921;-66
2021/04/24 03:22:12;;;;;;;;;;;18.20;50.00;;;;;;5045701;28;20341;-66
2021/04/24 03:24:37;;;;;;;;;;;18.20;49.90;;;;;;5044865;28;19924;-66
2021/04/24 03:27:02;;;;;;;;;;;18.10;49.80;;;;;;5043689;28;19920;-66
2021/04/24 03:29:28;;;;;;;;;;;18.10;49.90;;;;;;5043039;28;19996;-66
2021/04/24 03:31:53;;;;;;;;;;;18.10;49.80;;;;;;5042764;28;19927;-66
2021/04/24 03:34:19;;;;;;;;;;;18.10;49.80;;;;;;5025020;28;19917;-66
2021/04/24 03:36:44;;;;;;;;;;;18.10;49.80;;;;;;5042108;28;20354;-66
2021/04/24 03:39:10;;;;;;;;;;;18.10;49.70;;;;;;5043606;28;19924;-65
2021/04/24 03:41:35;;;;;;;;;;;18.10;49.70;;;;;;5041901;28;19921;-66
2021/04/24 03:44:01;;;;;;;;;;;18.10;49.80;;;;;;5043108;28;19925;-66
2021/04/24 03:46:26;;;;;;;;;;;18.10;49.70;;;;;;5043501;28;20302;-66
2021/04/24 03:48:52;;;;;;;;;;;18.10;49.70;;;;;;5044161;28;19987;-65
2021/04/24 03:51:17;;;;;;;;;;;18.10;49.70;;;;;;5043802;28;19959;-65
2021/04/24 03:53:42;;;;;;;;;;;18.10;49.70;;;;;;5043722;28;19917;-64
2021/04/24 03:56:08;;;;;;;;;;;18.10;49.70;;;;;;5043151;28;20361;-65
2021/04/24 03:58:33;;;;;;;;;;;18.10;49.70;;;;;;5042800;28;20058;-66
2021/04/24 04:00:59;;;;;;;;;;;18.10;49.70;;;;;;5042653;28;19925;-66
2021/04/24 04:03:24;;;;;;;;;;;18.10;49.70;;;;;;5042532;28;19971;-66
2021/04/24 04:05:50;;;;;;;;;;;18.10;49.70;;;;;;5042174;28;19917;-66
2021/04/24 04:08:15;;;;;;;;;;;18.10;49.70;;;;;;5042487;28;20671;-66
2021/04/24 04:10:41;;;;;;;;;;;18.10;49.70;;;;;;5042444;28;20495;-66
2021/04/24 04:13:07;;;;;;;;;;;18.10;49.70;;;;;;5043530;28;19917;-66
2021/04/24 04:15:32;;;;;;;;;;;18.10;49.70;;;;;;5042636;28;19934;-65
2021/04/24 04:18:01;;;;;;;;;;;18.10;49.70;;;;;;5042044;28;19921;-66
2021/04/24 04:20:26;;;;;;;;;;;18.10;49.70;;;;;;5041440;28;19927;-67
2021/04/24 04:22:52;;;;;;;;;;;18.10;49.70;;;;;;5043003;28;19920;-66
2021/04/24 04:25:17;;;;;;;;;;;18.10;49.70;;;;;;5041864;28;20477;-66
2021/04/24 04:27:43;;;;;;;;;;;18.10;49.70;;;;;;5046079;28;19923;-66
2021/04/24 04:30:09;;;;;;;;;;;18.00;49.60;;;;;;5046383;28;20005;-65
2021/04/24 04:32:34;;;;;;;;;;;18.00;49.60;;;;;;5046614;28;19928;-64
2021/04/24 04:35:00;;;;;;;;;;;18.00;49.60;;;;;;5046050;28;19924;-66
2021/04/24 04:37:25;;;;;;;;;;;18.00;49.60;;;;;;5045590;28;20470;-66
2021/04/24 04:39:51;;;;;;;;;;;18.00;49.50;;;;;;5045715;28;19917;-66
2021/04/24 04:42:16;;;;;;;;;;;18.00;49.50;;;;;;5045701;28;19920;-65
2021/04/24 04:44:41;;;;;;;;;;;18.00;49.60;;;;;;5046336;28;19990;-66
2021/04/24 04:47:07;;;;;;;;;;;18.00;49.60;;;;;;5045640;28;19917;-66
2021/04/24 04:49:32;;;;;;;;;;;18.00;49.60;;;;;;5045672;28;19967;-66
2021/04/24 04:51:58;;;;;;;;;;;18.00;49.70;;;;;;5045651;28;20346;-66
2021/04/24 04:54:23;;;;;;;;;;;18.00;49.70;;;;;;5045151;28;19925;-67
2021/04/24 04:56:49;;;;;;;;;;;18.00;49.70;;;;;;5045673;28;19917;-67
2021/04/24 04:59:14;;;;;;;;;;;18.00;49.70;;;;;;5045690;28;19921;-66
2021/04/24 05:01:39;;;;;;;;;;;18.00;49.60;;;;;;5045334;28;19943;-65
2021/04/24 05:04:05;;;;;;;;;;;18.00;49.60;;;;;;5045827;28;19949;-65
2021/04/24 05:06:30;;;;;;;;;;;18.00;49.60;;;;;;5053956;28;19921;-66
2021/04/24 05:08:56;;;;;;;;;;;18.00;49.60;;;;;;5055988;28;19916;-67
2021/04/24 05:11:21;;;;;;;;;;;18.00;49.60;;;;;;5045142;28;20051;-65
2021/04/24 05:13:47;;;;;;;;;;;18.00;49.70;;;;;;5045779;28;20378;-64
2021/04/24 05:16:12;;;;;;;;;;;18.00;49.70;;;;;;5044977;28;20112;-65
2021/04/24 05:18:38;;;;;;;;;;;18.00;49.70;;;;;;5026896;28;19968;-66
2021/04/24 05:21:03;;;;;;;;;;;18.00;49.70;;;;;;5045032;28;19921;-66
2021/04/24 05:23:29;;;;;;;;;;;18.00;49.70;;;;;;5045038;28;20300;-66
2021/04/24 05:25:54;;;;;;;;;;;18.00;49.80;;;;;;5044859;28;19917;-66
2021/04/24 05:28:19;;;;;;;;;;;17.90;49.70;;;;;;5045025;28;19921;-66
2021/04/24 05:30:45;;;;;;;;;;;18.00;49.70;;;;;;5044872;28;19917;-66
2021/04/24 05:33:10;;;;;;;;;;;18.00;49.70;;;;;;5015491;28;20547;-64
2021/04/24 05:35:36;;;;;;;;;;;18.00;49.70;;;;;;5044758;28;19966;-65
2021/04/24 05:38:01;;;;;;;;;;;17.90;49.70;;;;;;5045197;28;20362;-64
2021/04/24 05:40:27;;;;;;;;;;;17.90;49.70;;;;;;5044664;28;19936;-66
2021/04/24 05:42:52;;;;;;;;;;;17.90;49.80;;;;;;5044565;28;19967;-66
2021/04/24 05:45:18;;;;;;;;;;;17.90;49.80;;;;;;5045004;28;19939;-67
2021/04/24 05:47:44;;;;;;;;;;;18.00;49.90;;;;;;5026853;28;20575;-66
2021/04/24 05:50:10;;;;;;;;;;;17.90;49.80;;;;;;5044600;28;19917;-66
2021/04/24 05:52:35;;;;;;;;;;;17.90;49.80;;;;;;5044713;28;19990;-66
2021/04/24 05:55:03;;;;;;;;;;;17.90;49.80;;;;;;5044544;28;19920;-66
2021/04/24 05:57:29;;;;;;;;;;;17.90;49.90;;;;;;5044121;28;19920;-66
2021/04/24 05:59:54;;;;;;;;;;;17.90;49.90;;;;;;5044764;28;20268;-63
2021/04/24 06:02:20;;;;;;;;;;;17.90;49.80;;;;;;5042903;28;19928;-66
2021/04/24 06:04:45;;;;;;;;;;;18.00;50.10;;;;;;5038371;28;20544;-65
2021/04/24 06:07:10;;;;;;;;;;;18.00;49.90;;;;;;5040893;28;20769;-65
2021/04/24 06:09:36;;;;;;;;;;;17.90;49.80;;;;;;5044957;28;19920;-66
2021/04/24 06:12:01;;;;;;;;;;;17.90;49.80;;;;;;5044939;28;19990;-64
2021/04/24 06:14:27;;;;;;;;;;;17.90;49.90;;;;;;5045590;28;20548;-66
2021/04/24 06:16:52;;;;;;;;;;;17.90;49.90;;;;;;5045159;28;19917;-66
2021/04/24 06:19:18;;;;;;;;;;;17.90;49.90;;;;;;5045013;28;19938;-66
2021/04/24 06:21:43;;;;;;;;;;;17.90;49.90;;;;;;5047224;28;19927;-66
2021/04/24 06:24:09;;;;;;;;;;;18.00;49.90;;;;;;5046820;28;20418;-66
2021/04/24 06:26:34;;;;;;;;;;;18.00;49.90;;;;;;5045310;28;19917;-66
2021/04/24 06:29:00;;;;;;;;;;;18.00;49.90;;;;;;5044032;28;20372;-66
2021/04/24 06:31:25;;;;;;;;;;;17.90;49.90;;;;;;5042486;28;19920;-65
2021/04/24 06:33:50;;;;;;;;;;;17.90;50.20;;;;;;5044523;28;19917;-67
2021/04/24 06:36:17;;;;;;;;;;;17.80;50.80;;;;;;5043825;28;19928;-67
2021/04/24 06:38:43;;;;;;;;;;;17.80;51.00;;;;;;5044308;28;19943;-65
2021/04/24 06:41:09;;;;;;;;;;;17.80;51.30;;;;;;5043662;28;19921;-66
2021/04/24 06:43:34;;;;;;;;;;;17.70;51.40;;;;;;5043186;28;19978;-66
2021/04/24 06:45:59;;;;;;;;;;;17.70;51.80;;;;;;5043057;28;19917;-66
2021/04/24 06:48:25;;;;;;;;;;;17.70;52.00;;;;;;5043334;28;20531;-65
2021/04/24 06:50:51;;;;;;;;;;;17.70;52.10;;;;;;5025193;28;19916;-69
2021/04/24 06:53:16;;;;;;;;;;;17.70;52.30;;;;;;5043943;28;19927;-69
2021/04/24 06:55:42;;;;;;;;;;;17.70;52.20;;;;;;5042267;28;19925;-67
2021/04/24 06:58:07;;;;;;;;;;;17.70;52.30;;;;;;5043383;28;19917;-67
2021/04/24 07:00:32;;;;;;;;;;;17.70;52.30;;;;;;5042436;28;19921;-69
2021/04/24 07:02:58;;;;;;;;;;;17.70;52.20;;;;;;5043558;28;20594;-64
2021/04/24 07:05:24;;;;;;;;;;;17.80;52.40;;;;;;5042711;28;19925;-68
2021/04/24 07:07:49;;;;;;;;;;;17.80;52.30;;;;;;5042601;28;20372;-69
2021/04/24 07:10:15;;;;;;;;;;;17.80;52.30;;;;;;5042791;28;19929;-69
2021/04/24 07:12:40;;;;;;;;;;;17.80;52.30;;;;;;5042339;28;19929;-69
2021/04/24 07:15:06;;;;;;;;;;;17.80;52.20;;;;;;5040283;28;19970;-70
2021/04/24 07:17:32;;;;;;;;;;;17.80;52.40;;;;;;5042278;28;20003;-69
2021/04/24 07:19:57;;;;;;;;;;;17.80;52.40;;;;;;5042482;28;20652;-68
2021/04/24 07:22:23;;;;;;;;;;;17.80;52.40;;;;;;5043002;28;19966;-69
2021/04/24 07:24:48;;;;;;;;;;;17.80;52.60;;;;;;5043333;28;20275;-71
2021/04/24 07:27:14;;;;;;;;;;;17.90;52.60;;;;;;5042833;28;19928;-70
2021/04/24 07:29:39;;;;;;;;;;;17.90;53.10;;;;;;5043224;28;19932;-70
2021/04/24 07:32:05;;;;;;;;;;;17.90;52.20;;;;;;5043936;28;19921;-68
2021/04/24 07:34:30;;;;;;;;;;;17.90;52.00;;;;;;5044957;28;19917;-67
2021/04/24 07:36:56;;;;;;;;;;;18.00;52.00;;;;;;5046557;28;20516;-69
2021/04/24 07:39:21;;;;;;;;;;;17.90;52.20;;;;;;5048558;28;19924;-66
2021/04/24 07:41:47;;;;;;;;;;;17.90;52.30;;;;;;5045425;28;19921;-67
2021/04/24 07:44:12;;;;;;;;;;;18.00;52.10;;;;;;5043315;28;19927;-68
2021/04/24 07:46:38;;;;;;;;;;;18.00;52.00;;;;;;5042800;28;21929;-69
2021/04/24 07:49:03;;;;;;;;;;;18.00;51.70;;;;;;5043764;28;19924;-67
2021/04/24 07:51:29;;;;;;;;;;;18.00;51.60;;;;;;5042455;28;19956;-67
2021/04/24 07:53:54;;;;;;;;;;;18.10;51.40;;;;;;5043106;28;19917;-69
2021/04/24 07:56:19;;;;;;;;;;;18.10;51.30;;;;;;5042713;28;19957;-69
2021/04/24 07:58:45;;;;;;;;;;;18.10;51.20;;;;;;5041840;28;20366;-66
2021/04/24 08:01:10;;;;;;;;;;;18.10;51.10;;;;;;5042335;28;20012;-68
2021/04/24 08:03:36;;;;;;;;;;;18.10;51.00;;;;;;5045071;28;19924;-66
2021/04/24 08:06:02;;;;;;;;;;;18.10;50.90;;;;;;5045484;28;19917;-66
2021/04/24 08:08:27;;;;;;;;;;;18.10;50.80;;;;;;5047175;28;19917;-67
2021/04/24 08:10:53;;;;;;;;;;;18.10;50.70;;;;;;5056596;28;20465;-68
2021/04/24 08:13:18;;;;;;;;;;;18.20;50.70;;;;;;5047852;28;19917;-66
2021/04/24 08:15:44;;;;;;;;;;;18.20;50.60;;;;;;5045436;28;19969;-66
2021/04/24 08:18:09;;;;;;;;;;;18.20;50.60;;;;;;5046163;28;20578;-67
2021/04/24 08:20:35;;;;;;;;;;;18.10;50.40;;;;;;5046072;28;19917;-67
2021/04/24 08:23:00;;;;;;;;;;;18.20;50.40;;;;;;5046756;28;20390;-68
2021/04/24 08:25:25;;;;;;;;;;;18.20;50.40;;;;;;5045992;28;19921;-68
2021/04/24 08:27:51;;;;;;;;;;;18.20;50.30;;;;;;5046022;28;19944;-68
2021/04/24 08:30:17;;;;;;;;;;;18.20;50.30;;;;;;5046160;28;20314;-68
2021/04/24 08:32:43;;;;;;;;;;;18.20;50.20;;;;;;5045318;28;20011;-68
2021/04/24 08:35:09;;;;;;;;;;;18.20;50.20;;;;;;5040705;28;20004;-66
2021/04/24 08:37:34;;;;;;;;;;;18.20;50.20;;;;;;5044828;28;19924;-64
2021/04/24 08:40:00;;;;;;;;;;;18.20;50.20;;;;;;5046273;28;19921;-65
2021/04/24 08:42:26;;;;;;;;;;;18.20;50.10;;;;;;5046159;28;20346;-68
2021/04/24 08:44:52;;;;;;;;;;;18.20;50.20;;;;;;5046425;28;19928;-69
2021/04/24 08:47:21;;;;;;;;;;;18.20;50.10;;;;;;5047804;28;19917;-67
2021/04/24 08:49:46;;;;;;;;;;;18.20;50.10;;;;;;5047462;28;19921;-67
2021/04/24 08:52:12;;;;;;;;;;;18.20;51.20;;;;;;5029872;28;19921;-68
2021/04/24 08:54:37;;;;;;;;;;;18.20;51.60;;;;;;5028894;28;19921;-69
2021/04/24 08:57:03;;;;;;;;;;;18.20;51.70;;;;;;5045924;28;19921;-69
2021/04/24 08:59:28;;;;;;;;;;;18.20;51.50;;;;;;5046629;28;20299;-68
2021/04/24 09:01:54;;;;;;;;;;;18.10;50.90;;;;;;5046997;28;19916;-68
2021/04/24 09:04:19;;;;;;;;;;;18.20;50.60;;;;;;5046791;28;19917;-68
2021/04/24 09:06:45;;;;;;;;;;;18.20;50.20;;;;;;5045272;28;19917;-68
2021/04/24 09:09:11;;;;;;;;;;;18.20;49.90;;;;;;5044762;28;19921;-67
2021/04/24 09:11:40;;;;;;;;;;;18.20;49.60;;;;;;5044806;28;19921;-69
2021/04/24 09:14:06;;;;;;;;;;;18.20;49.40;;;;;;5045753;28;19920;-67
2021/04/24 09:16:32;;;;;;;;;;;18.20;49.20;;;;;;5045190;28;19917;-68
2021/04/24 09:18:57;;;;;;;;;;;18.20;49.00;;;;;;5010995;28;19928;-67
2021/04/24 09:21:23;;;;;;;;;;;18.20;48.90;;;;;;5027419;28;20274;-69
2021/04/24 09:23:49;;;;;;;;;;;18.20;49.20;;;;;;5045339;28;20011;-68
2021/04/24 09:26:14;;;;;;;;;;;18.20;48.50;;;;;;5044760;28;20059;-68
2021/04/24 09:28:43;;;;;;;;;;;18.20;48.70;;;;;;5045053;28;19984;-67
2021/04/24 09:31:16;;;;;;;;;;;18.20;48.60;;;;;;5044701;28;19932;-68
2021/04/24 09:33:41;;;;;;;;;;;18.20;48.40;;;;;;5044963;28;19917;-69
2021/04/24 09:36:08;;;;;;;;;;;18.20;48.30;;;;;;5044787;28;19917;-67
2021/04/24 09:38:34;;;;;;;;;;;18.20;48.20;;;;;;5044859;28;19967;-68
2021/04/24 09:41:03;;;;;;;;;;;18.20;48.10;;;;;;5044163;28;19943;-69
2021/04/24 09:43:28;;;;;;;;;;;18.20;48.00;;;;;;5045436;28;20112;-68
2021/04/24 09:45:53;;;;;;;;;;;18.20;48.00;;;;;;5044762;28;20446;-68
2021/04/24 09:48:26;;;;;;;;;;;18.30;47.80;;;;;;5045530;28;19916;-68
2021/04/24 09:50:51;;;;;;;;;;;18.20;47.70;;;;;;5044279;28;19950;-68
2021/04/24 09:53:17;;;;;;;;;;;18.20;47.60;;;;;;5044645;28;20426;-68
2021/04/24 09:55:42;;;;;;;;;;;18.20;47.50;;;;;;5044828;28;19927;-68
2021/04/24 09:58:26;;;;;;;;;;;18.20;47.50;;;;;;5026899;28;19916;-67
2021/04/24 10:00:52;;;;;;;;;;;18.20;47.60;;;;;;5035512;28;20845;-68
2021/04/24 10:03:33;;;;;;;;;;;18.20;47.70;;;;;;5026858;28;19932;-68
2021/04/24 10:06:19;;;;;;;;;;;18.10;47.70;;;;;;5044263;28;19928;-68
2021/04/24 10:08:44;;;;;;;;;;;18.20;47.80;;;;;;5038373;28;19959;-68
2021/04/24 10:11:09;;;;;;;;;;;18.10;47.90;;;;;;5044085;28;19921;-68
2021/04/24 10:13:38;;;;;;;;;;;18.20;48.00;;;;;;5044054;28;19921;-68
2021/04/24 10:16:03;;;;;;;;;;;18.10;48.00;;;;;;5046383;28;19928;-69
2021/04/24 10:18:29;;;;;;;;;;;18.10;48.10;;;;;;5048998;28;19921;-68
2021/04/24 10:20:54;;;;;;;;;;;18.10;48.10;;;;;;5030831;28;19975;-68
2021/04/24 10:23:20;;;;;;;;;;;18.10;48.10;;;;;;5042904;28;20406;-69
2021/04/24 10:25:45;;;;;;;;;;;18.20;48.20;;;;;;5044260;28;19916;-68
2021/04/24 10:28:10;;;;;;;;;;;18.20;48.30;;;;;;5044050;28;19929;-68
2021/04/24 10:30:37;;;;;;;;;;;18.20;48.40;;;;;;5043568;28;19921;-68
2021/04/24 10:33:03;;;;;;;;;;;18.20;48.50;;;;;;5043299;28;19927;-68
2021/04/24 10:35:30;;;;;;;;;;;18.20;48.50;;;;;;5043971;28;19964;-67
2021/04/24 10:37:56;;;;;;;;;;;18.20;48.50;;;;;;5044900;28;19947;-67
2021/04/24 10:40:21;;;;;;;;;;;18.20;48.50;;;;;;5044071;28;20508;-67
2021/04/24 10:42:50;;;;;;;;;;;18.30;48.40;;;;;;5044231;28;19924;-68
2021/04/24 10:45:33;;;;;;;;;;;18.30;48.40;;;;;;5044152;28;19927;-67
2021/04/24 10:47:58;;;;;;;;;;;18.30;48.60;;;;;;5044162;28;19971;-68
2021/04/24 10:50:39;;;;;;;;;;;18.30;48.70;;;;;;5026336;28;19956;-67
2021/04/24 10:53:24;;;;;;;;;;;18.30;48.60;;;;;;5043333;28;19974;-68
2021/04/24 10:55:50;;;;;;;;;;;18.30;48.50;;;;;;5037683;28;20004;-68
2021/04/24 10:58:16;;;;;;;;;;;18.30;48.40;;;;;;5043966;28;20009;-68
2021/04/24 11:00:42;;;;;;;;;;;18.30;48.30;;;;;;5044141;28;20409;-68
2021/04/24 11:03:07;;;;;;;;;;;18.30;48.20;;;;;;5044318;28;19916;-67
2021/04/24 11:05:33;;;;;;;;;;;18.30;48.00;;;;;;5043559;28;19935;-67
2021/04/24 11:08:11;;;;;;;;;;;18.30;47.80;;;;;;5044172;28;19920;-68
2021/04/24 11:10:43;;;;;;;;;;;18.30;47.70;;;;;;5044607;28;20003;-67
2021/04/24 11:13:12;;;;;;;;;;;18.30;47.80;;;;;;5036969;28;19928;-67
2021/04/24 11:15:38;;;;;;;;;;;18.30;47.80;;;;;;5045161;28;19927;-68
2021/04/24 11:18:06;;;;;;;;;;;18.30;47.80;;;;;;5045889;28;20373;-68
2021/04/24 11:20:51;;;;;;;;;;;18.30;47.70;;;;;;5044096;28;19916;-68
2021/04/24 11:23:32;;;;;;;;;;;18.30;47.70;;;;;;5052722;28;20394;-68
2021/04/24 11:25:57;;;;;;;;;;;18.30;47.70;;;;;;5035465;28;20004;-68
2021/04/24 11:28:23;;;;;;;;;;;18.30;47.60;;;;;;5044424;28;20522;-68
2021/04/24 11:30:48;;;;;;;;;;;18.30;47.40;;;;;;5043968;28;19925;-68
2021/04/24 11:33:33;;;;;;;;;;;18.30;47.40;;;;;;5043935;28;20379;-68
2021/04/24 11:36:13;;;;;;;;;;;18.30;47.40;;;;;;5044068;28;19917;-68
2021/04/24 11:38:55;;;;;;;;;;;18.30;47.30;;;;;;5043078;28;19925;-68
2021/04/24 11:41:26;;;;;;;;;;;18.30;47.30;;;;;;5044408;28;19963;-68
2021/04/24 11:43:52;;;;;;;;;;;18.30;47.30;;;;;;5043980;28;19931;-67
2021/04/24 11:46:36;;;;;;;;;;;18.30;47.30;;;;;;5043059;28;19924;-67
2021/04/24 11:49:08;;;;;;;;;;;18.20;47.30;;;;;;5038482;28;20728;-68
2021/04/24 11:51:35;;;;;;;;;;;18.20;47.20;;;;;;5036248;28;20012;-67
2021/04/24 11:54:01;;;;;;;;;;;18.30;47.20;;;;;;5040278;28;19917;-69
2021/04/24 11:56:26;;;;;;;;;;;18.20;47.20;;;;;;5043122;28;20396;-69
2021/04/24 11:58:51;;;;;;;;;;;18.20;47.30;;;;;;5043542;28;19917;-69
2021/04/24 12:01:20;;;;;;;;;;;18.20;47.40;;;;;;5042350;28;19917;-67
2021/04/24 12:03:46;;;;;;;;;;;18.20;47.50;;;;;;5039657;28;19917;-67
2021/04/24 12:06:11;;;;;;;;;;;18.20;47.60;;;;;;5043677;28;19917;-68
2021/04/24 12:08:37;;;;;;;;;;;18.20;47.90;;;;;;5043396;28;19921;-68
2021/04/24 12:11:07;;;;;;;;;;;18.20;48.60;;;;;;5024748;28;19920;-68
2021/04/24 12:13:33;;;;;;;;;;;18.20;48.10;;;;;;5044589;28;20346;-67
2021/04/24 12:15:58;;;;;;;;;;;18.20;48.20;;;;;;5046355;28;19917;-68
2021/04/24 12:18:30;;;;;;;;;;;18.20;48.40;;;;;;5044094;28;19924;-67
2021/04/24 12:20:56;;;;;;;;;;;18.20;48.60;;;;;;5044915;28;19916;-66
2021/04/24 12:23:22;;;;;;;;;;;18.20;48.60;;;;;;5049554;28;19939;-67
2021/04/24 12:25:47;;;;;;;;;;;18.20;48.40;;;;;;5049343;28;19924;-67
2021/04/24 12:28:13;;;;;;;;;;;18.20;48.40;;;;;;5043254;28;19924;-69
2021/04/24 12:30:39;;;;;;;;;;;18.20;48.30;;;;;;5041971;28;19952;-68
2021/04/24 12:33:06;;;;;;;;;;;18.20;48.10;;;;;;5042231;28;19924;-68
2021/04/24 12:35:32;;;;;;;;;;;18.20;48.00;;;;;;5042287;28;19928;-68
2021/04/24 12:37:59;;;;;;;;;;;18.20;47.90;;;;;;5042075;28;20431;-68
2021/04/24 12:40:25;;;;;;;;;;;18.20;47.90;;;;;;5042307;28;19924;-68
2021/04/24 12:42:50;;;;;;;;;;;18.20;47.80;;;;;;5042584;28;19925;-68
2021/04/24 12:45:17;;;;;;;;;;;18.20;47.80;;;;;;5042471;28;19948;-68
2021/04/24 12:47:44;;;;;;;;;;;18.20;47.80;;;;;;5043610;28;19921;-68
2021/04/24 12:50:13;;;;;;;;;;;18.20;47.80;;;;;;5045669;28;20431;-68
2021/04/24 12:52:46;;;;;;;;;;;18.20;47.60;;;;;;5046770;28;19920;-68
2021/04/24 12:55:11;;;;;;;;;;;18.20;48.30;;;;;;5040627;28;19917;-67
2021/04/24 12:57:46;;;;;;;;;;;18.20;47.60;;;;;;5048633;28;19924;-68
2021/04/24 13:00:12;;;;;;;;;;;18.20;47.50;;;;;;5050870;28;19921;-66
2021/04/24 13:02:38;;;;;;;;;;;18.20;47.50;;;;;;5046027;28;19917;-66
2021/04/24 13:05:07;;;;;;;;;;;18.20;47.50;;;;;;5046163;28;20501;-69
2021/04/24 13:07:32;;;;;;;;;;;18.20;47.40;;;;;;5045810;28;20650;-69
2021/04/24 13:09:58;;;;;;;;;;;18.20;47.40;;;;;;5028274;28;19921;-69
2021/04/24 13:12:24;;;;;;;;;;;18.20;47.20;;;;;;5044506;28;20647;-69
2021/04/24 13:14:49;;;;;;;;;;;18.20;47.20;;;;;;5045719;28;19982;-67
2021/04/24 13:17:16;;;;;;;;;;;18.20;47.10;;;;;;5044563;28;20024;-68
2021/04/24 13:20:01;;;;;;;;;;;18.20;47.20;;;;;;5045611;28;19923;-67
2021/04/24 13:22:39;;;;;;;;;;;18.00;47.60;;;;;;5044459;28;20384;-68
2021/04/24 13:25:08;;;;;;;;;;;17.90;48.60;;;;;;5039705;28;19917;-68
2021/04/24 13:27:34;;;;;;;;;;;17.90;49.00;;;;;;5027378;28;20030;-69
2021/04/24 13:29:59;;;;;;;;;;;17.80;49.20;;;;;;5046162;28;20384;-68
2021/04/24 13:32:25;;;;;;;;;;;17.80;49.40;;;;;;5044722;28;19947;-68
2021/04/24 13:34:53;;;;;;;;;;;17.80;49.40;;;;;;5045894;28;19924;-67
2021/04/24 13:37:23;;;;;;;;;;;17.80;49.40;;;;;;5045787;28;19917;-68
2021/04/24 13:39:49;;;;;;;;;;;17.80;49.30;;;;;;5046671;28;20015;-68
2021/04/24 13:42:17;;;;;;;;;;;17.80;49.20;;;;;;5044924;28;19928;-68
2021/04/24 13:44:43;;;;;;;;;;;17.90;49.30;;;;;;5046217;28;19924;-69
2021/04/24 13:47:18;;;;;;;;;;;17.80;49.00;;;;;;5047449;28;19920;-69
2021/04/24 13:49:44;;;;;;;;;;;17.90;49.00;;;;;;5038791;28;19996;-69
2021/04/24 13:52:09;;;;;;;;;;;17.90;49.40;;;;;;5044694;28;19925;-69
2021/04/24 13:54:35;;;;;;;;;;;17.90;49.60;;;;;;5044719;28;19917;-69
2021/04/24 13:57:00;;;;;;;;;;;17.90;49.60;;;;;;5044943;28;19927;-69
2021/04/24 13:59:26;;;;;;;;;;;17.90;49.70;;;;;;5043077;28;19998;-68
2021/04/24 14:01:52;;;;;;;;;;;17.90;49.80;;;;;;5044309;28;19925;-68
2021/04/24 14:04:18;;;;;;;;;;;17.90;50.00;;;;;;5044994;28;19920;-67
2021/04/24 14:06:43;;;;;;;;;;;17.90;50.00;;;;;;5044136;28;19916;-69
2021/04/24 14:09:09;;;;;;;;;;;17.90;50.00;;;;;;5044302;28;19921;-65
2021/04/24 14:11:34;;;;;;;;;;;17.90;50.00;;;;;;5044805;28;19920;-67